Welcome to Des Moines Iowa Weather. I am an independent private personal weather station on the Northwest Side of Des Moines, Iowa. Just East of Windsor Heights and just West of Glendale . This site is also mobile friendly.

There are no active watches, warnings or advisories


Visit our other weather sites:

Historical Data

Weather Station Setup



Weather Underground History page Text

Daily Summary for January 12, 2018 Units:  Both    English   Metric
« Previous Day
Next Day »
Daily Weekly Monthly Yearly Custom
  High: Low: Average:
Temperature: 7.9 °F /  -13.4 °C -3.7 °F /  -19.8 °C 3 °F /  -16.1 °C
Dew Point: 0.0 °F /  -17.8 °C -9.0 °F /  -22.8 °C -4.4 °F /  -20.2 °C
Humidity: 80 % 60 % 72 %
Wind Speed: 12.0 mph /  19.3 km/h - 4.2 mph /  6.8 km/h
Wind Gust: 19.0 mph /  30.6 km/h - -
Wind:- - South
Pressure: 30.71 in /  1039.8 hPa 30.28 in /  1025.3 hPa -
Precipitation: 0.00 in /  0 mm    
Historical Graphs
 
 
Tabular Data for January 12, 2018
Time Temperature Dew Point Pressure Wind Wind Speed Wind Gust Humidity Rainfall Rate (Hourly)
00:00 5.0 °F /  -15 °C 0.0 °F /  -17.8 °C 30.28 in /  1025.3 hPa NNE 3.0 mph /  4.8 km/h 10.0 mph /  16.1 km/h 80 % 0.00 in /  0 mm
00:15 4.5 °F /  -15.3 °C -1.0 °F /  -18.3 °C 30.29 in /  1025.6 hPa North 2.0 mph /  3.2 km/h 14.0 mph /  22.5 km/h 79 % 0.00 in /  0 mm
00:30 4.0 °F /  -15.6 °C -1.0 °F /  -18.3 °C 30.29 in /  1025.6 hPa North 10.0 mph /  16.1 km/h 12.0 mph /  19.3 km/h 79 % 0.00 in /  0 mm
00:45 3.7 °F /  -15.7 °C -2.0 °F /  -18.9 °C 30.29 in /  1025.6 hPa North 9.0 mph /  14.5 km/h 13.0 mph /  20.9 km/h 78 % 0.00 in /  0 mm
01:00 3.4 °F /  -15.9 °C -2.0 °F /  -18.9 °C 30.30 in /  1026 hPa North 6.0 mph /  9.7 km/h 19.0 mph /  30.6 km/h 78 % 0.00 in /  0 mm
01:15 3.2 °F /  -16 °C -2.0 °F /  -18.9 °C 30.30 in /  1026 hPa North 4.0 mph /  6.4 km/h 10.0 mph /  16.1 km/h 78 % 0.00 in /  0 mm
01:30 3.0 °F /  -16.1 °C -2.0 °F /  -18.9 °C 30.31 in /  1026.3 hPa North 4.0 mph /  6.4 km/h 10.0 mph /  16.1 km/h 78 % 0.00 in /  0 mm
01:45 2.8 °F /  -16.2 °C -3.0 °F /  -19.4 °C 30.32 in /  1026.6 hPa North 5.0 mph /  8 km/h 12.0 mph /  19.3 km/h 77 % 0.00 in /  0 mm
02:00 2.5 °F /  -16.4 °C -3.0 °F /  -19.4 °C 30.33 in /  1027 hPa North 6.0 mph /  9.7 km/h 15.0 mph /  24.1 km/h 77 % 0.00 in /  0 mm
02:30 2.1 °F /  -16.6 °C -4.0 °F /  -20 °C 30.34 in /  1027.3 hPa North 1.0 mph /  1.6 km/h 8.0 mph /  12.9 km/h 77 % 0.00 in /  0 mm
02:46 1.9 °F /  -16.7 °C -4.0 °F /  -20 °C 30.34 in /  1027.3 hPa North 1.0 mph /  1.6 km/h 8.0 mph /  12.9 km/h 78 % 0.00 in /  0 mm
03:01 1.7 °F /  -16.8 °C -4.0 °F /  -20 °C 30.35 in /  1027.7 hPa North 4.0 mph /  6.4 km/h 10.0 mph /  16.1 km/h 78 % 0.00 in /  0 mm
03:16 1.4 °F /  -17 °C -4.0 °F /  -20 °C 30.36 in /  1028 hPa North 4.0 mph /  6.4 km/h 10.0 mph /  16.1 km/h 78 % 0.00 in /  0 mm
03:31 1.1 °F /  -17.2 °C -5.0 °F /  -20.6 °C 30.36 in /  1028 hPa NNE 9.0 mph /  14.5 km/h 12.0 mph /  19.3 km/h 77 % 0.00 in /  0 mm
03:46 0.5 °F /  -17.5 °C -5.0 °F /  -20.6 °C 30.36 in /  1028 hPa North 4.0 mph /  6.4 km/h 11.0 mph /  17.7 km/h 76 % 0.00 in /  0 mm
04:01 0.0 °F /  -17.8 °C -6.0 °F /  -21.1 °C 30.36 in /  1028 hPa NNW 6.0 mph /  9.7 km/h 14.0 mph /  22.5 km/h 76 % 0.00 in /  0 mm
04:16 -0.3 °F /  -17.9 °C -6.0 °F /  -21.1 °C 30.37 in /  1028.3 hPa NW 1.0 mph /  1.6 km/h 11.0 mph /  17.7 km/h 76 % 0.00 in /  0 mm
04:31 -0.7 °F /  -18.2 °C -7.0 °F /  -21.7 °C 30.37 in /  1028.3 hPa NNW 1.0 mph /  1.6 km/h 13.0 mph /  20.9 km/h 76 % 0.00 in /  0 mm
04:46 -0.9 °F /  -18.3 °C -7.0 °F /  -21.7 °C 30.37 in /  1028.3 hPa WNW 3.0 mph /  4.8 km/h 12.0 mph /  19.3 km/h 76 % 0.00 in /  0 mm
05:01 -1.0 °F /  -18.3 °C -7.0 °F /  -21.7 °C 30.38 in /  1028.7 hPa NW 4.0 mph /  6.4 km/h 11.0 mph /  17.7 km/h 76 % 0.00 in /  0 mm
05:16 -1.2 °F /  -18.4 °C -7.0 °F /  -21.7 °C 30.39 in /  1029 hPa NNW 6.0 mph /  9.7 km/h 12.0 mph /  19.3 km/h 77 % 0.00 in /  0 mm
05:31 -1.4 °F /  -18.6 °C -7.0 °F /  -21.7 °C 30.39 in /  1029 hPa NNW 4.0 mph /  6.4 km/h 11.0 mph /  17.7 km/h 77 % 0.00 in /  0 mm
05:46 -1.7 °F /  -18.7 °C -7.0 °F /  -21.7 °C 30.39 in /  1029 hPa North 11.0 mph /  17.7 km/h 14.0 mph /  22.5 km/h 77 % 0.00 in /  0 mm
06:02 -1.9 °F /  -18.8 °C -7.0 °F /  -21.7 °C 30.39 in /  1029 hPa NNW 9.0 mph /  14.5 km/h 11.0 mph /  17.7 km/h 77 % 0.00 in /  0 mm
06:17 -2.1 °F /  -18.9 °C -8.0 °F /  -22.2 °C 30.39 in /  1029 hPa NW 4.0 mph /  6.4 km/h 13.0 mph /  20.9 km/h 76 % 0.00 in /  0 mm
06:32 -2.3 °F /  -19.1 °C -8.0 °F /  -22.2 °C 30.39 in /  1029 hPa NNW 3.0 mph /  4.8 km/h 11.0 mph /  17.7 km/h 77 % 0.00 in /  0 mm
06:47 -2.6 °F /  -19.2 °C -8.0 °F /  -22.2 °C 30.40 in /  1029.3 hPa NW 4.0 mph /  6.4 km/h 12.0 mph /  19.3 km/h 77 % 0.00 in /  0 mm
07:02 -2.7 °F /  -19.3 °C -8.0 °F /  -22.2 °C 30.41 in /  1029.7 hPa NNW 5.0 mph /  8 km/h 9.0 mph /  14.5 km/h 77 % 0.00 in /  0 mm
07:17 -2.9 °F /  -19.4 °C -8.0 °F /  -22.2 °C 30.41 in /  1029.7 hPa NNW 9.0 mph /  14.5 km/h 11.0 mph /  17.7 km/h 77 % 0.00 in /  0 mm
07:32 -3.2 °F /  -19.6 °C -9.0 °F /  -22.8 °C 30.42 in /  1030 hPa WNW 5.0 mph /  8 km/h 10.0 mph /  16.1 km/h 77 % 0.00 in /  0 mm
07:47 -3.4 °F /  -19.7 °C -9.0 °F /  -22.8 °C 30.42 in /  1030 hPa North 4.0 mph /  6.4 km/h 13.0 mph /  20.9 km/h 77 % 0.00 in /  0 mm
08:02 -3.7 °F /  -19.8 °C -9.0 °F /  -22.8 °C 30.42 in /  1030 hPa North 1.0 mph /  1.6 km/h 12.0 mph /  19.3 km/h 77 % 0.00 in /  0 mm
08:17 -3.6 °F /  -19.8 °C -9.0 °F /  -22.8 °C 30.43 in /  1030.4 hPa West 12.0 mph /  19.3 km/h 16.0 mph /  25.7 km/h 78 % 0.00 in /  0 mm
08:32 -3.5 °F /  -19.7 °C -9.0 °F /  -22.8 °C 30.44 in /  1030.7 hPa WNW 5.0 mph /  8 km/h 12.0 mph /  19.3 km/h 77 % 0.00 in /  0 mm
08:47 -3.4 °F /  -19.7 °C -9.0 °F /  -22.8 °C 30.44 in /  1030.7 hPa North 11.0 mph /  17.7 km/h 15.0 mph /  24.1 km/h 77 % 0.00 in /  0 mm
09:02 -2.1 °F /  -18.9 °C -8.0 °F /  -22.2 °C 30.45 in /  1031 hPa NW 5.0 mph /  8 km/h 10.0 mph /  16.1 km/h 76 % 0.00 in /  0 mm
09:18 -2.0 °F /  -18.9 °C -8.0 °F /  -22.2 °C 30.46 in /  1031.4 hPa North 3.0 mph /  4.8 km/h 11.0 mph /  17.7 km/h 75 % 0.00 in /  0 mm
09:33 -1.8 °F /  -18.8 °C -8.0 °F /  -22.2 °C 30.47 in /  1031.7 hPa NW 6.0 mph /  9.7 km/h 12.0 mph /  19.3 km/h 75 % 0.00 in /  0 mm
09:48 -1.5 °F /  -18.6 °C -8.0 °F /  -22.2 °C 30.47 in /  1031.7 hPa WNW 4.0 mph /  6.4 km/h 11.0 mph /  17.7 km/h 75 % 0.00 in /  0 mm
10:03 -1.0 °F /  -18.3 °C -8.0 °F /  -22.2 °C 30.48 in /  1032.1 hPa North 2.0 mph /  3.2 km/h 12.0 mph /  19.3 km/h 73 % 0.00 in /  0 mm
10:18 -0.5 °F /  -18.1 °C -7.0 °F /  -21.7 °C 30.49 in /  1032.4 hPa NW 1.0 mph /  1.6 km/h 12.0 mph /  19.3 km/h 73 % 0.00 in /  0 mm
10:33 -0.2 °F /  -17.9 °C -7.0 °F /  -21.7 °C 30.49 in /  1032.4 hPa NW 1.0 mph /  1.6 km/h 12.0 mph /  19.3 km/h 72 % 0.00 in /  0 mm
10:48 0.7 °F /  -17.4 °C -6.0 °F /  -21.1 °C 30.49 in /  1032.4 hPa NNW 4.0 mph /  6.4 km/h 13.0 mph /  20.9 km/h 72 % 0.00 in /  0 mm
11:03 1.4 °F /  -17 °C -6.0 °F /  -21.1 °C 30.49 in /  1032.4 hPa North 4.0 mph /  6.4 km/h 9.0 mph /  14.5 km/h 72 % 0.00 in /  0 mm
11:18 1.6 °F /  -16.9 °C -6.0 °F /  -21.1 °C 30.50 in /  1032.7 hPa WNW 2.0 mph /  3.2 km/h 10.0 mph /  16.1 km/h 71 % 0.00 in /  0 mm
11:33 2.7 °F /  -16.3 °C -5.0 °F /  -20.6 °C 30.49 in /  1032.4 hPa NW 3.0 mph /  4.8 km/h 9.0 mph /  14.5 km/h 71 % 0.00 in /  0 mm
11:48 2.7 °F /  -16.3 °C -5.0 °F /  -20.6 °C 30.50 in /  1032.7 hPa NNW 6.0 mph /  9.7 km/h 12.0 mph /  19.3 km/h 70 % 0.00 in /  0 mm
12:03 3.8 °F /  -15.7 °C -5.0 °F /  -20.6 °C 30.50 in /  1032.7 hPa NW 2.0 mph /  3.2 km/h 11.0 mph /  17.7 km/h 68 % 0.00 in /  0 mm
12:18 5.1 °F /  -14.9 °C -4.0 °F /  -20 °C 30.50 in /  1032.7 hPa North 3.0 mph /  4.8 km/h 11.0 mph /  17.7 km/h 66 % 0.00 in /  0 mm
12:33 5.9 °F /  -14.5 °C -4.0 °F /  -20 °C 30.50 in /  1032.7 hPa NW 5.0 mph /  8 km/h 12.0 mph /  19.3 km/h 64 % 0.00 in /  0 mm
12:49 6.4 °F /  -14.2 °C -4.0 °F /  -20 °C 30.50 in /  1032.7 hPa NW 5.0 mph /  8 km/h 11.0 mph /  17.7 km/h 62 % 0.00 in /  0 mm
13:04 7.0 °F /  -13.9 °C -4.0 °F /  -20 °C 30.50 in /  1032.7 hPa WNW 4.0 mph /  6.4 km/h 11.0 mph /  17.7 km/h 62 % 0.00 in /  0 mm
13:19 7.6 °F /  -13.6 °C -4.0 °F /  -20 °C 30.50 in /  1032.7 hPa North 2.0 mph /  3.2 km/h 10.0 mph /  16.1 km/h 60 % 0.00 in /  0 mm
13:34 7.7 °F /  -13.5 °C -3.0 °F /  -19.4 °C 30.50 in /  1032.7 hPa NNW 5.0 mph /  8 km/h 12.0 mph /  19.3 km/h 61 % 0.00 in /  0 mm
13:49 7.9 °F /  -13.4 °C -3.0 °F /  -19.4 °C 30.50 in /  1032.7 hPa North 2.0 mph /  3.2 km/h 11.0 mph /  17.7 km/h 61 % 0.00 in /  0 mm
14:04 7.6 °F /  -13.6 °C -4.0 °F /  -20 °C 30.51 in /  1033.1 hPa North 1.0 mph /  1.6 km/h 17.0 mph /  27.4 km/h 60 % 0.00 in /  0 mm
14:19 7.4 °F /  -13.7 °C -3.0 °F /  -19.4 °C 30.52 in /  1033.4 hPa North 3.0 mph /  4.8 km/h 9.0 mph /  14.5 km/h 62 % 0.00 in /  0 mm
14:34 7.1 °F /  -13.8 °C -3.0 °F /  -19.4 °C 30.53 in /  1033.7 hPa North 11.0 mph /  17.7 km/h 16.0 mph /  25.7 km/h 63 % 0.00 in /  0 mm
14:49 7.9 °F /  -13.4 °C -2.0 °F /  -18.9 °C 30.53 in /  1033.7 hPa North 2.0 mph /  3.2 km/h 9.0 mph /  14.5 km/h 65 % 0.00 in /  0 mm
15:05 7.5 °F /  -13.6 °C -2.0 °F /  -18.9 °C 30.54 in /  1034.1 hPa NE 3.0 mph /  4.8 km/h 11.0 mph /  17.7 km/h 64 % 0.00 in /  0 mm
15:20 7.3 °F /  -13.7 °C -3.0 °F /  -19.4 °C 30.55 in /  1034.4 hPa North 3.0 mph /  4.8 km/h 10.0 mph /  16.1 km/h 64 % 0.00 in /  0 mm
15:35 7.4 °F /  -13.7 °C -2.0 °F /  -18.9 °C 30.56 in /  1034.8 hPa NE 3.0 mph /  4.8 km/h 9.0 mph /  14.5 km/h 65 % 0.00 in /  0 mm
15:50 7.3 °F /  -13.7 °C -2.0 °F /  -18.9 °C 30.57 in /  1035.1 hPa North 4.0 mph /  6.4 km/h 10.0 mph /  16.1 km/h 66 % 0.00 in /  0 mm
16:05 7.4 °F /  -13.7 °C -2.0 °F /  -18.9 °C 30.58 in /  1035.4 hPa North 3.0 mph /  4.8 km/h 10.0 mph /  16.1 km/h 66 % 0.00 in /  0 mm
16:20 7.1 °F /  -13.8 °C -2.0 °F /  -18.9 °C 30.59 in /  1035.8 hPa North 3.0 mph /  4.8 km/h 10.0 mph /  16.1 km/h 67 % 0.00 in /  0 mm
16:35 6.8 °F /  -14 °C -2.0 °F /  -18.9 °C 30.59 in /  1035.8 hPa North 1.0 mph /  1.6 km/h 12.0 mph /  19.3 km/h 67 % 0.00 in /  0 mm
16:50 6.8 °F /  -14 °C -2.0 °F /  -18.9 °C 30.60 in /  1036.1 hPa North 5.0 mph /  8 km/h 12.0 mph /  19.3 km/h 68 % 0.00 in /  0 mm
17:05 6.7 °F /  -14.1 °C -2.0 °F /  -18.9 °C 30.62 in /  1036.8 hPa North 4.0 mph /  6.4 km/h 10.0 mph /  16.1 km/h 68 % 0.00 in /  0 mm
17:20 6.7 °F /  -14.1 °C -2.0 °F /  -18.9 °C 30.62 in /  1036.8 hPa North 1.0 mph /  1.6 km/h 10.0 mph /  16.1 km/h 68 % 0.00 in /  0 mm
17:35 6.5 °F /  -14.2 °C -2.0 °F /  -18.9 °C 30.62 in /  1036.8 hPa North 6.0 mph /  9.7 km/h 11.0 mph /  17.7 km/h 69 % 0.00 in /  0 mm
17:50 6.3 °F /  -14.3 °C -2.0 °F /  -18.9 °C 30.63 in /  1037.1 hPa Calm   11.0 mph /  17.7 km/h 68 % 0.00 in /  0 mm
18:06 6.0 °F /  -14.4 °C -3.0 °F /  -19.4 °C 30.64 in /  1037.5 hPa North 2.0 mph /  3.2 km/h 12.0 mph /  19.3 km/h 68 % 0.00 in /  0 mm
18:21 5.9 °F /  -14.5 °C -2.0 °F /  -18.9 °C 30.64 in /  1037.5 hPa NNE 4.0 mph /  6.4 km/h 9.0 mph /  14.5 km/h 69 % 0.00 in /  0 mm
18:36 5.6 °F /  -14.7 °C -2.0 °F /  -18.9 °C 30.65 in /  1037.8 hPa North 7.0 mph /  11.3 km/h 12.0 mph /  19.3 km/h 70 % 0.00 in /  0 mm
18:51 5.2 °F /  -14.9 °C -3.0 °F /  -19.4 °C 30.65 in /  1037.8 hPa North 9.0 mph /  14.5 km/h 12.0 mph /  19.3 km/h 70 % 0.00 in /  0 mm
19:06 4.9 °F /  -15.1 °C -3.0 °F /  -19.4 °C 30.66 in /  1038.1 hPa North 4.0 mph /  6.4 km/h 14.0 mph /  22.5 km/h 70 % 0.00 in /  0 mm
19:21 4.6 °F /  -15.2 °C -3.0 °F /  -19.4 °C 30.66 in /  1038.1 hPa North 3.0 mph /  4.8 km/h 11.0 mph /  17.7 km/h 71 % 0.00 in /  0 mm
19:36 4.5 °F /  -15.3 °C -3.0 °F /  -19.4 °C 30.66 in /  1038.1 hPa North 5.0 mph /  8 km/h 13.0 mph /  20.9 km/h 71 % 0.00 in /  0 mm
19:51 4.3 °F /  -15.4 °C -4.0 °F /  -20 °C 30.66 in /  1038.1 hPa NNE 7.0 mph /  11.3 km/h 12.0 mph /  19.3 km/h 70 % 0.00 in /  0 mm
20:06 4.2 °F /  -15.4 °C -4.0 °F /  -20 °C 30.67 in /  1038.5 hPa North 3.0 mph /  4.8 km/h 11.0 mph /  17.7 km/h 70 % 0.00 in /  0 mm
20:21 4.1 °F /  -15.5 °C -4.0 °F /  -20 °C 30.68 in /  1038.8 hPa North 4.0 mph /  6.4 km/h 10.0 mph /  16.1 km/h 70 % 0.00 in /  0 mm
20:36 4.1 °F /  -15.5 °C -4.0 °F /  -20 °C 30.68 in /  1038.8 hPa North 3.0 mph /  4.8 km/h 10.0 mph /  16.1 km/h 70 % 0.00 in /  0 mm
20:51 4.1 °F /  -15.5 °C -4.0 °F /  -20 °C 30.69 in /  1039.2 hPa North 2.0 mph /  3.2 km/h 10.0 mph /  16.1 km/h 69 % 0.00 in /  0 mm
21:06 4.1 °F /  -15.5 °C -4.0 °F /  -20 °C 30.69 in /  1039.2 hPa NNE 3.0 mph /  4.8 km/h 8.0 mph /  12.9 km/h 69 % 0.00 in /  0 mm
21:37 4.7 °F /  -15.2 °C -4.0 °F /  -20 °C 30.69 in /  1039.2 hPa NNE 4.0 mph /  6.4 km/h 10.0 mph /  16.1 km/h 68 % 0.00 in /  0 mm
21:52 5.2 °F /  -14.9 °C -3.0 °F /  -19.4 °C 30.69 in /  1039.2 hPa North 2.0 mph /  3.2 km/h 9.0 mph /  14.5 km/h 68 % 0.00 in /  0 mm
22:07 5.5 °F /  -14.7 °C -3.0 °F /  -19.4 °C 30.69 in /  1039.2 hPa North 7.0 mph /  11.3 km/h 8.0 mph /  12.9 km/h 68 % 0.00 in /  0 mm
22:22 5.8 °F /  -14.6 °C -3.0 °F /  -19.4 °C 30.69 in /  1039.2 hPa NE 1.0 mph /  1.6 km/h 6.0 mph /  9.7 km/h 68 % 0.00 in /  0 mm
22:37 6.0 °F /  -14.4 °C -3.0 °F /  -19.4 °C 30.70 in /  1039.5 hPa North 5.0 mph /  8 km/h 13.0 mph /  20.9 km/h 68 % 0.00 in /  0 mm
22:52 6.2 °F /  -14.3 °C -2.0 °F /  -18.9 °C 30.70 in /  1039.5 hPa North 8.0 mph /  12.9 km/h 9.0 mph /  14.5 km/h 68 % 0.00 in /  0 mm
23:07 6.2 °F /  -14.3 °C -2.0 °F /  -18.9 °C 30.70 in /  1039.5 hPa North 2.0 mph /  3.2 km/h 9.0 mph /  14.5 km/h 68 % 0.00 in /  0 mm
23:22 6.3 °F /  -14.3 °C -2.0 °F /  -18.9 °C 30.71 in /  1039.8 hPa NNE 4.0 mph /  6.4 km/h 7.0 mph /  11.3 km/h 69 % 0.00 in /  0 mm
23:37 6.3 °F /  -14.3 °C -2.0 °F /  -18.9 °C 30.71 in /  1039.8 hPa North 4.0 mph /  6.4 km/h 10.0 mph /  16.1 km/h 69 % 0.00 in /  0 mm
23:52 6.4 °F /  -14.2 °C -2.0 °F /  -18.9 °C 30.71 in /  1039.8 hPa North 4.0 mph /  6.4 km/h 10.0 mph /  16.1 km/h 69 % 0.00 in /  0 mm
Des Moines Weather and Climate
Compliments of Weather Underground - 3 mb

Script developed by  Jim McMurry - jmcmurry@mwt.net Adapted for the template by  Wim van der Kuil - Leuven-Template.eu

You find our weather info also at:

Weather Underground

Equipment we use:

Weather-station
Davis VP2 Plus

Weather-program
Davis Weatherlink.Com

Weather-server
iMac (Retina 4K, 21.5-inch, Late 2015)

Provider
Hostmonster.com

Davis VP2 Plus

Davis Weatherlink.Com

iMac (Retina 4K, 21.5-inch, Late 2015)

Hostmonster.com